createdAt,value
2017-09-19T00:02:23.794Z,25.07
2017-09-19T00:04:51.867Z,25.67
2017-09-19T00:07:19.963Z,23.30
2017-09-19T00:09:48.048Z,30.30
2017-09-19T00:12:16.149Z,28.57
2017-09-19T00:14:44.188Z,27.80
2017-09-19T00:17:12.255Z,27.83
2017-09-19T00:19:40.320Z,30.33
2017-09-19T00:22:08.387Z,28.10
2017-09-19T00:24:36.454Z,27.83
2017-09-19T00:27:04.524Z,25.37
2017-09-19T00:29:32.599Z,29.03
2017-09-19T00:32:00.639Z,29.20
2017-09-19T00:34:28.726Z,24.97
2017-09-19T00:36:56.799Z,35.27
2017-09-19T00:39:24.878Z,26.83
2017-09-19T00:41:52.947Z,27.40
2017-09-19T00:44:21.024Z,29.13
2017-09-19T00:46:49.099Z,26.37
2017-09-19T00:49:17.190Z,25.37
2017-09-19T00:51:45.335Z,28.60
2017-09-19T00:54:13.408Z,27.40
2017-09-19T00:56:41.475Z,28.10
2017-09-19T00:59:09.576Z,31.17
2017-09-19T01:01:37.639Z,25.90
2017-09-19T01:04:05.695Z,34.33
2017-09-19T01:06:33.788Z,29.87
2017-09-19T01:09:01.865Z,30.63
2017-09-19T01:11:29.927Z,30.20
2017-09-19T01:13:58.002Z,30.53
2017-09-19T01:16:26.079Z,34.73
2017-09-19T01:18:54.151Z,29.63
2017-09-19T01:21:22.239Z,28.80
2017-09-19T01:23:50.307Z,30.30
2017-09-19T01:26:18.370Z,29.60
2017-09-19T01:28:46.438Z,34.97
2017-09-19T01:31:14.508Z,33.73
2017-09-19T01:33:42.574Z,31.10
2017-09-19T01:36:10.952Z,30.97
2017-09-19T01:38:39.028Z,30.77
2017-09-19T01:41:08.033Z,32.83
2017-09-19T01:43:36.120Z,33.60
2017-09-19T01:46:04.950Z,35.60
2017-09-19T01:48:33.027Z,37.70
2017-09-19T01:51:01.122Z,31.73
2017-09-19T01:53:29.187Z,41.73
2017-09-19T01:55:57.251Z,32.53
2017-09-19T01:58:25.335Z,33.47
2017-09-19T02:00:53.399Z,34.10
2017-09-19T02:03:21.478Z,30.87
2017-09-19T02:05:49.562Z,35.50
2017-09-19T02:08:18.404Z,30.80
2017-09-19T02:10:46.464Z,35.87
2017-09-19T02:13:14.549Z,30.93
2017-09-19T02:15:42.598Z,36.93
2017-09-19T02:18:10.673Z,30.97
2017-09-19T02:20:38.777Z,30.33
2017-09-19T02:23:06.923Z,31.23
2017-09-19T02:25:35.016Z,31.50
2017-09-19T02:28:03.086Z,35.53
2017-09-19T02:30:31.156Z,34.63
2017-09-19T02:32:59.235Z,31.07
2017-09-19T02:35:28.807Z,31.43
2017-09-19T02:37:56.877Z,27.90
2017-09-19T02:40:25.010Z,40.50
2017-09-19T02:42:53.048Z,29.03
2017-09-19T02:45:21.115Z,29.77
2017-09-19T02:47:49.190Z,29.40
2017-09-19T02:50:17.261Z,31.83
2017-09-19T02:52:45.357Z,33.83
2017-09-19T02:55:13.406Z,32.70
2017-09-19T02:57:41.498Z,32.13
2017-09-19T03:00:10.359Z,32.93
2017-09-19T03:02:38.419Z,31.07
2017-09-19T03:05:06.485Z,30.53
2017-09-19T03:07:34.867Z,28.47
2017-09-19T03:10:02.952Z,30.97
2017-09-19T03:12:31.019Z,29.13
2017-09-19T03:14:59.113Z,27.23
2017-09-19T03:17:27.185Z,28.53
2017-09-19T03:19:55.268Z,30.57
2017-09-19T03:22:23.360Z,33.83
2017-09-19T03:24:51.419Z,28.70
2017-09-19T03:27:19.512Z,29.03
2017-09-19T03:29:47.565Z,29.30
2017-09-19T03:32:15.638Z,30.73
2017-09-19T03:34:43.703Z,35.13
2017-09-19T03:37:12.092Z,34.93
2017-09-19T03:39:40.151Z,33.67
2017-09-19T03:42:08.228Z,34.10
2017-09-19T03:44:36.295Z,32.77
2017-09-19T03:47:04.371Z,35.43
2017-09-19T03:49:32.427Z,43.43
2017-09-19T03:52:00.511Z,37.00
2017-09-19T03:54:28.611Z,39.77
2017-09-19T03:56:57.465Z,33.43
2017-09-19T03:59:25.565Z,30.73
2017-09-19T04:01:53.638Z,33.77
2017-09-19T04:04:21.711Z,31.87
2017-09-19T04:06:50.547Z,34.90
2017-09-19T04:09:18.636Z,32.13
2017-09-19T04:11:46.731Z,36.23
2017-09-19T04:14:14.782Z,31.20
2017-09-19T04:16:42.851Z,30.90
2017-09-19T04:19:10.924Z,40.33
2017-09-19T04:21:39.015Z,43.30
2017-09-19T04:24:07.083Z,38.37
2017-09-19T04:26:35.163Z,44.63
2017-09-19T04:29:03.232Z,38.40
2017-09-19T04:31:31.315Z,45.20
2017-09-19T04:33:59.390Z,50.40
2017-09-19T04:36:27.463Z,52.30
2017-09-19T04:38:56.286Z,59.60
2017-09-19T04:41:24.355Z,65.50
2017-09-19T04:43:52.523Z,63.67
2017-09-19T04:46:20.562Z,56.90
2017-09-19T04:48:48.632Z,66.87
2017-09-19T04:51:16.739Z,64.63
2017-09-19T04:53:44.806Z,65.20
2017-09-19T04:56:12.893Z,65.23
2017-09-19T04:58:40.964Z,56.20
2017-09-19T05:01:09.139Z,62.73
2017-09-19T05:03:37.963Z,62.57
2017-09-19T05:06:06.022Z,67.20
2017-09-19T05:08:34.092Z,58.50
2017-09-19T05:11:02.179Z,65.17
2017-09-19T05:13:30.246Z,67.50
2017-09-19T05:15:58.343Z,54.23
2017-09-19T05:18:26.423Z,63.83
2017-09-19T05:20:54.486Z,64.17
2017-09-19T05:23:22.551Z,62.00
2017-09-19T05:25:50.631Z,57.90
2017-09-19T05:28:18.699Z,55.17
2017-09-19T05:30:46.773Z,53.00
2017-09-19T05:33:14.833Z,54.77
2017-09-19T05:35:42.896Z,55.10
2017-09-19T05:38:10.975Z,53.30
2017-09-19T05:40:39.036Z,57.73
2017-09-19T05:43:07.231Z,56.43
2017-09-19T05:45:35.304Z,62.90
2017-09-19T05:48:03.371Z,52.83
2017-09-19T05:50:31.446Z,52.93
2017-09-19T05:52:59.530Z,51.97
2017-09-19T05:55:27.602Z,47.30
2017-09-19T05:57:56.461Z,47.40
2017-09-19T06:00:24.535Z,46.73
2017-09-19T06:02:52.622Z,44.63
2017-09-19T06:05:20.683Z,57.43
2017-09-19T06:07:48.751Z,45.23
2017-09-19T06:10:16.956Z,46.13
2017-09-19T06:12:45.082Z,43.87
2017-09-19T06:15:13.132Z,52.70
2017-09-19T06:17:41.199Z,50.80
2017-09-19T06:20:09.271Z,49.40
2017-09-19T06:22:37.344Z,44.20
2017-09-19T06:25:05.416Z,46.60
2017-09-19T06:27:33.491Z,50.83
2017-09-19T06:30:01.555Z,49.90
2017-09-19T06:32:29.627Z,51.43
2017-09-19T06:34:57.718Z,48.80
2017-09-19T06:37:27.539Z,54.13
2017-09-19T06:39:56.382Z,46.53
2017-09-19T06:42:24.467Z,50.60
2017-09-19T06:44:52.538Z,50.07
2017-09-19T06:47:20.619Z,56.60
2017-09-19T06:49:48.687Z,59.30
2017-09-19T06:52:16.783Z,49.83
2017-09-19T06:54:45.619Z,54.03
2017-09-19T06:57:13.687Z,56.77
2017-09-19T06:59:41.771Z,53.90
2017-09-19T07:02:09.843Z,51.73
2017-09-19T07:04:38.232Z,55.77
2017-09-19T07:07:06.312Z,56.37
2017-09-19T07:09:34.378Z,57.40
2017-09-19T07:12:02.474Z,57.40
2017-09-19T07:14:30.555Z,50.33
2017-09-19T07:16:59.395Z,57.83
2017-09-19T07:19:27.478Z,63.50
2017-09-19T07:21:55.536Z,58.37
2017-09-19T07:24:23.603Z,55.63
2017-09-19T07:26:51.683Z,60.60
2017-09-19T07:29:19.770Z,51.00
2017-09-19T07:31:47.842Z,51.73
2017-09-19T07:34:15.938Z,61.33
2017-09-19T07:36:44.766Z,52.63
2017-09-19T07:39:12.855Z,49.50
2017-09-19T07:41:40.924Z,57.80
2017-09-19T07:44:09.043Z,50.97
2017-09-19T07:46:37.913Z,55.37
2017-09-19T07:49:05.977Z,50.80
2017-09-19T07:51:34.050Z,55.03
2017-09-19T07:54:02.139Z,60.50
2017-09-19T07:56:30.239Z,61.27
2017-09-19T07:58:59.056Z,62.40
2017-09-19T08:01:27.127Z,57.23
2017-09-19T08:03:55.211Z,62.20
2017-09-19T08:06:23.342Z,61.20
2017-09-19T08:08:51.401Z,64.43
2017-09-19T08:11:20.268Z,54.77
2017-09-19T08:13:48.338Z,59.20
2017-09-19T08:16:16.403Z,62.90
2017-09-19T08:18:44.479Z,66.80
2017-09-19T08:21:12.549Z,61.23
2017-09-19T08:23:40.616Z,70.03
2017-09-19T08:26:08.678Z,66.77
2017-09-19T08:28:36.761Z,64.93
2017-09-19T08:31:04.823Z,56.93
2017-09-19T08:33:32.891Z,63.13
2017-09-19T08:36:00.972Z,60.23
2017-09-19T08:38:29.048Z,69.47
2017-09-19T08:40:57.111Z,62.00
2017-09-19T08:43:25.184Z,64.67
2017-09-19T08:45:53.262Z,63.80
2017-09-19T08:48:21.327Z,65.50
2017-09-19T08:50:49.421Z,61.27
2017-09-19T08:53:17.619Z,62.63
2017-09-19T08:55:45.673Z,66.87
2017-09-19T08:58:13.727Z,78.03
2017-09-19T09:00:42.603Z,56.57
2017-09-19T09:03:10.666Z,58.00
2017-09-19T09:05:38.758Z,58.70
2017-09-19T09:08:06.859Z,55.20
2017-09-19T09:10:35.698Z,56.30
2017-09-19T09:13:03.767Z,63.07
2017-09-19T09:15:31.870Z,54.57
2017-09-19T09:18:00.707Z,59.60
2017-09-19T09:20:28.799Z,60.90
2017-09-19T09:22:56.867Z,57.70
2017-09-19T09:25:24.971Z,53.90
2017-09-19T09:27:53.823Z,54.70
2017-09-19T09:30:21.903Z,56.37
2017-09-19T09:32:50.019Z,47.97
2017-09-19T09:35:18.857Z,58.30
2017-09-19T09:37:46.940Z,60.17
2017-09-19T09:40:15.027Z,58.47
2017-09-19T09:42:43.103Z,57.17
2017-09-19T09:45:11.933Z,58.87
2017-09-19T09:47:40.020Z,60.60
2017-09-19T09:50:08.086Z,68.70
2017-09-19T09:52:36.185Z,59.60
2017-09-19T09:55:04.241Z,65.70
2017-09-19T09:57:32.323Z,60.10
2017-09-19T10:00:00.397Z,68.50
2017-09-19T10:02:28.475Z,65.30
2017-09-19T10:04:56.539Z,73.23
2017-09-19T10:07:24.616Z,68.60
2017-09-19T10:09:52.704Z,63.70
2017-09-19T10:12:20.754Z,58.47
2017-09-19T10:14:48.839Z,60.23
2017-09-19T10:17:16.952Z,53.77
2017-09-19T10:19:45.036Z,54.27
2017-09-19T10:22:13.120Z,66.40
2017-09-19T10:24:41.210Z,55.07
2017-09-19T10:27:10.036Z,52.53
2017-09-19T10:29:38.099Z,49.00
2017-09-19T10:32:06.179Z,47.17
2017-09-19T10:34:34.255Z,46.40
2017-09-19T10:37:02.337Z,41.00
2017-09-19T10:39:30.407Z,33.70
2017-09-19T10:41:58.518Z,29.90
2017-09-19T10:44:27.412Z,30.83
2017-09-19T10:46:56.317Z,28.30
2017-09-19T10:49:24.363Z,29.43
2017-09-19T10:51:53.192Z,28.10
2017-09-19T10:54:21.319Z,29.67
2017-09-19T10:56:49.379Z,29.80
2017-09-19T10:59:17.459Z,24.53
2017-09-19T11:01:45.520Z,24.33
2017-09-19T11:04:13.599Z,21.43
2017-09-19T11:06:41.667Z,24.57
2017-09-19T11:09:09.788Z,21.53
2017-09-19T11:11:37.856Z,21.47
2017-09-19T11:14:06.130Z,22.27
2017-09-19T11:16:34.197Z,19.87
2017-09-19T11:19:02.290Z,22.30
2017-09-19T11:21:30.383Z,21.93
2017-09-19T11:23:59.466Z,22.67
2017-09-19T11:26:27.531Z,22.43
2017-09-19T11:28:55.596Z,26.00
2017-09-19T11:31:23.667Z,23.40
2017-09-19T11:33:51.750Z,28.47
2017-09-19T11:36:19.836Z,23.17
2017-09-19T11:38:48.668Z,21.93
2017-09-19T11:41:16.756Z,21.57
2017-09-19T11:43:44.831Z,20.77
2017-09-19T11:46:12.927Z,23.50
2017-09-19T11:48:40.986Z,25.73
2017-09-19T11:51:09.862Z,22.10
2017-09-19T11:53:37.932Z,20.57
2017-09-19T11:56:06.023Z,17.60
2017-09-19T11:58:34.088Z,15.33
2017-09-19T12:01:02.164Z,14.20
2017-09-19T12:03:30.243Z,15.73
2017-09-19T12:05:58.323Z,16.17
2017-09-19T12:08:27.195Z,13.57
2017-09-19T12:10:55.293Z,14.90
2017-09-19T12:13:24.106Z,12.57
2017-09-19T12:15:52.964Z,13.87
2017-09-19T12:18:21.057Z,12.67
2017-09-19T12:20:50.684Z,11.13
2017-09-19T12:23:19.502Z,13.73
2017-09-19T12:25:47.567Z,12.17
2017-09-19T12:28:15.687Z,12.10
2017-09-19T12:30:43.767Z,12.70
2017-09-19T12:33:11.836Z,11.13
2017-09-19T12:35:41.415Z,11.40
2017-09-19T12:38:09.485Z,11.80
2017-09-19T12:40:37.622Z,11.40
2017-09-19T12:43:05.656Z,11.13
2017-09-19T12:45:35.277Z,12.03
2017-09-19T12:48:03.324Z,12.30
2017-09-19T12:50:31.415Z,11.70
2017-09-19T12:52:59.469Z,11.50
2017-09-19T12:55:27.534Z,10.13
2017-09-19T12:57:55.636Z,14.43
2017-09-19T13:00:24.463Z,9.50
2017-09-19T13:02:52.527Z,10.37
2017-09-19T13:05:20.632Z,10.07
2017-09-19T13:07:48.693Z,12.60
2017-09-19T13:10:16.779Z,11.10
2017-09-19T13:12:44.866Z,8.90
2017-09-19T13:15:12.928Z,11.20
2017-09-19T13:17:40.983Z,10.33
2017-09-19T13:20:09.085Z,11.40
2017-09-19T13:22:37.147Z,9.20
2017-09-19T13:25:05.246Z,11.80
2017-09-19T13:27:33.339Z,7.73
2017-09-19T13:30:01.419Z,9.67
2017-09-19T13:46:00.279Z,9.47
2017-09-19T13:48:28.339Z,8.73
2017-09-19T13:50:56.396Z,8.43
2017-09-19T13:53:24.475Z,9.40
2017-09-19T13:55:52.523Z,8.90
2017-09-19T13:58:20.613Z,8.43
2017-09-19T14:00:48.679Z,9.97
2017-09-19T14:03:16.896Z,8.73
2017-09-19T14:05:45.735Z,10.23
2017-09-19T14:08:13.834Z,8.10
2017-09-19T14:10:41.870Z,9.40
2017-09-19T14:13:09.947Z,9.60
2017-09-19T14:15:39.511Z,9.03
2017-09-19T14:18:07.562Z,7.60
2017-09-19T14:20:36.406Z,6.93
2017-09-19T14:23:04.478Z,5.90
2017-09-19T14:25:32.557Z,7.80
2017-09-19T14:28:00.615Z,7.90
2017-09-19T14:30:28.667Z,8.37
2017-09-19T14:32:56.737Z,8.87
2017-09-19T14:35:24.825Z,7.50
2017-09-19T14:37:52.923Z,8.70
2017-09-19T14:40:20.950Z,9.20
2017-09-19T14:42:49.031Z,9.07
2017-09-19T14:45:17.092Z,8.50
2017-09-19T14:47:45.164Z,9.33
2017-09-19T14:50:13.234Z,10.30
2017-09-19T14:52:41.322Z,11.57
2017-09-19T14:55:09.399Z,12.60
2017-09-19T14:57:37.475Z,13.23
2017-09-19T15:00:05.569Z,12.40
2017-09-19T15:02:34.815Z,13.47
2017-09-19T15:05:02.902Z,13.23
2017-09-19T15:07:31.003Z,14.90
2017-09-19T15:09:59.091Z,13.60
2017-09-19T15:12:27.930Z,13.40
2017-09-19T15:14:56.020Z,17.40
2017-09-19T15:17:24.106Z,14.63
2017-09-19T15:19:52.185Z,15.27
2017-09-19T15:22:21.188Z,14.40
2017-09-19T15:24:49.277Z,14.03
2017-09-19T15:27:17.342Z,12.93
2017-09-19T15:29:45.422Z,12.63
2017-09-19T15:32:14.357Z,13.77
2017-09-19T15:34:42.431Z,13.80
2017-09-19T15:37:10.518Z,17.33
2017-09-19T15:39:38.599Z,16.80
2017-09-19T15:42:06.684Z,13.63
2017-09-19T15:44:34.776Z,13.83
2017-09-19T15:47:03.615Z,13.87
2017-09-19T15:49:31.712Z,13.13
2017-09-19T15:51:59.780Z,13.60
2017-09-19T15:54:27.855Z,16.43
2017-09-19T15:56:55.922Z,15.50
2017-09-19T15:59:23.991Z,13.70
2017-09-19T16:01:52.100Z,14.30
2017-09-19T16:04:20.987Z,14.80
2017-09-19T16:06:49.180Z,14.97
2017-09-19T16:09:18.108Z,14.53
2017-09-19T16:11:46.301Z,14.50
2017-09-19T16:14:14.445Z,15.83
2017-09-19T16:16:43.039Z,16.07
2017-09-19T16:19:11.907Z,17.17
2017-09-19T16:21:40.093Z,16.60
2017-09-19T16:24:08.182Z,15.27
2017-09-19T16:26:36.259Z,16.97
2017-09-19T16:29:04.386Z,18.10
2017-09-19T16:31:32.535Z,17.50
2017-09-19T16:34:01.386Z,19.63
2017-09-19T16:36:29.553Z,16.83
2017-09-19T16:38:57.641Z,16.47
2017-09-19T16:41:26.508Z,18.40
2017-09-19T16:43:54.654Z,16.10
2017-09-19T16:46:23.035Z,18.40
2017-09-19T16:48:51.132Z,16.57
2017-09-19T16:51:20.034Z,18.17
2017-09-19T16:53:48.619Z,17.23
2017-09-19T16:56:18.263Z,17.23
2017-09-19T16:58:47.758Z,17.87
2017-09-19T17:01:17.218Z,16.97
2017-09-19T17:03:45.365Z,16.33
2017-09-19T17:06:13.755Z,17.67
2017-09-19T17:08:41.863Z,20.27
2017-09-19T17:11:11.156Z,16.97
2017-09-19T17:13:40.039Z,16.13
2017-09-19T17:16:09.213Z,13.93
2017-09-19T17:18:43.190Z,16.97
2017-09-19T17:21:11.265Z,15.60
2017-09-19T17:23:40.612Z,15.87
2017-09-19T17:26:08.876Z,15.87
2017-09-19T17:28:36.973Z,17.00
2017-09-19T17:31:05.076Z,18.07
2017-09-19T17:33:34.729Z,17.23
2017-09-19T17:36:02.798Z,16.53
2017-09-19T17:38:30.928Z,19.60
2017-09-19T17:40:59.021Z,19.77
2017-09-19T17:43:27.887Z,18.53
2017-09-19T17:45:55.981Z,17.87
2017-09-19T17:48:24.879Z,17.00
2017-09-19T17:50:54.334Z,20.90
2017-09-19T17:53:22.395Z,19.77
2017-09-19T17:55:50.487Z,22.13
2017-09-19T17:58:18.569Z,18.70
2017-09-19T18:00:46.647Z,18.90
2017-09-19T18:03:16.102Z,17.57
2017-09-19T18:05:44.196Z,18.13
2017-09-19T18:08:12.296Z,18.77
2017-09-19T18:10:41.523Z,17.00
2017-09-19T18:13:10.356Z,16.87
2017-09-19T18:15:38.425Z,21.47
2017-09-19T18:18:06.591Z,29.27
2017-09-19T18:20:34.665Z,22.17
2017-09-19T18:23:02.753Z,20.00
2017-09-19T18:25:30.828Z,20.97
2017-09-19T18:27:58.929Z,23.40
2017-09-19T18:30:27.016Z,24.67
2017-09-19T18:32:55.856Z,23.10
2017-09-19T18:35:23.914Z,20.60
2017-09-19T18:37:52.003Z,21.60
2017-09-19T18:40:20.118Z,21.57
2017-09-19T18:42:48.944Z,25.87
2017-09-19T18:45:17.039Z,27.57
2017-09-19T18:47:45.121Z,25.57
2017-09-19T18:50:13.191Z,25.70
2017-09-19T18:52:41.275Z,24.57
2017-09-19T18:55:09.378Z,24.30
2017-09-19T18:57:38.211Z,24.67
2017-09-19T19:00:06.292Z,24.17
2017-09-19T19:02:34.427Z,24.00
2017-09-19T19:05:02.498Z,25.00
2017-09-19T19:07:30.573Z,25.10
2017-09-19T19:09:58.649Z,26.07
2017-09-19T19:12:26.741Z,26.37
2017-09-19T19:14:54.808Z,24.73
2017-09-19T19:17:22.883Z,26.43
2017-09-19T19:19:50.989Z,25.97
2017-09-19T19:22:19.065Z,23.33
2017-09-19T19:24:47.143Z,27.10
2017-09-19T19:27:15.281Z,24.10
2017-09-19T19:29:43.391Z,25.50
2017-09-19T19:32:11.463Z,29.80
2017-09-19T19:34:39.533Z,28.10
2017-09-19T19:37:07.601Z,25.73
2017-09-19T19:39:35.687Z,24.73
2017-09-19T19:42:04.547Z,25.10
2017-09-19T19:44:32.606Z,28.50
2017-09-19T19:47:00.704Z,29.50
2017-09-19T19:49:28.784Z,24.77
2017-09-19T19:51:57.642Z,31.03
2017-09-19T19:54:25.703Z,27.20
2017-09-19T19:56:54.314Z,30.40
2017-09-19T19:59:22.385Z,27.47
2017-09-19T20:01:50.473Z,26.80
2017-09-19T20:04:19.319Z,35.13
2017-09-19T20:06:47.408Z,29.97
2017-09-19T20:09:15.493Z,27.40
2017-09-19T20:11:43.674Z,28.43
2017-09-19T20:14:12.524Z,28.70
2017-09-19T20:16:40.623Z,32.53
2017-09-19T20:19:08.730Z,29.73
2017-09-19T20:21:36.791Z,29.30
2017-09-19T20:24:04.881Z,30.23
2017-09-19T20:26:32.955Z,32.63
2017-09-19T20:29:01.056Z,32.10
2017-09-19T20:31:29.902Z,32.50
2017-09-19T20:33:57.959Z,28.57
2017-09-19T20:36:26.060Z,25.77
2017-09-19T20:38:54.132Z,33.00
2017-09-19T20:41:22.885Z,33.27
2017-09-19T20:43:50.938Z,28.73
2017-09-19T20:46:19.022Z,32.40
2017-09-19T20:48:47.107Z,36.17
2017-09-19T20:51:15.195Z,29.73
2017-09-19T20:53:43.266Z,29.53
2017-09-19T20:56:11.423Z,26.97
2017-09-19T20:58:39.508Z,30.87
2017-09-19T21:01:07.558Z,25.33
2017-09-19T21:03:41.402Z,28.30
2017-09-19T21:06:15.131Z,31.10
2017-09-19T21:08:49.567Z,29.37
2017-09-19T21:11:23.244Z,29.77
2017-09-19T21:13:56.987Z,30.10
2017-09-19T21:16:30.636Z,29.07
2017-09-19T21:19:04.439Z,30.27
2017-09-19T21:21:33.312Z,29.67
2017-09-19T21:24:01.396Z,28.13
2017-09-19T21:26:30.274Z,29.70
2017-09-19T21:28:58.375Z,26.77
2017-09-19T21:31:26.457Z,29.13
2017-09-19T21:33:54.535Z,36.87
2017-09-19T21:36:22.612Z,34.13
2017-09-19T21:38:50.696Z,32.10
2017-09-19T21:41:18.763Z,31.90
2017-09-19T21:43:46.840Z,32.13
2017-09-19T21:46:15.037Z,34.73
2017-09-19T21:48:43.098Z,33.77
2017-09-19T21:51:11.170Z,33.13
2017-09-19T21:53:39.258Z,31.97
2017-09-19T21:56:07.371Z,28.03
2017-09-19T21:58:35.441Z,32.07
2017-09-19T22:01:03.518Z,38.00
2017-09-19T22:03:31.586Z,33.00
2017-09-19T22:05:59.671Z,34.03
2017-09-19T22:08:27.743Z,35.93
2017-09-19T22:10:55.841Z,34.40
2017-09-19T22:13:23.961Z,43.13
2017-09-19T22:15:52.804Z,41.43
2017-09-19T22:18:20.900Z,41.00
2017-09-19T22:20:49.726Z,39.33
2017-09-19T22:23:17.926Z,38.30
2017-09-19T22:25:46.003Z,45.97
2017-09-19T22:28:14.843Z,38.03
2017-09-19T22:30:42.945Z,44.77
2017-09-19T22:33:11.771Z,41.33
2017-09-19T22:35:39.915Z,39.80
2017-09-19T22:38:07.970Z,42.60
2017-09-19T22:40:36.040Z,40.67
2017-09-19T22:43:04.195Z,38.70
2017-09-19T22:45:32.270Z,43.00
2017-09-19T22:48:00.351Z,46.50
2017-09-19T22:50:28.408Z,40.10
2017-09-19T22:52:56.827Z,45.23
2017-09-19T22:55:25.652Z,44.00
2017-09-19T22:57:53.714Z,40.87
2017-09-19T23:00:21.803Z,42.00
2017-09-19T23:02:49.866Z,41.57
2017-09-19T23:05:17.935Z,39.30
2017-09-19T23:07:46.006Z,50.30
2017-09-19T23:10:14.075Z,42.43
2017-09-19T23:12:42.158Z,45.87
2017-09-19T23:15:10.215Z,44.47
2017-09-19T23:17:38.283Z,44.80
2017-09-19T23:20:06.349Z,36.90
2017-09-19T23:22:34.431Z,39.03
2017-09-19T23:25:02.494Z,47.60
2017-09-19T23:27:30.567Z,44.07
2017-09-19T23:29:58.629Z,46.60
2017-09-19T23:32:27.468Z,43.60
2017-09-19T23:34:55.537Z,44.70
2017-09-19T23:37:23.643Z,46.33
2017-09-19T23:39:52.471Z,42.40
2017-09-19T23:42:20.540Z,36.17
2017-09-19T23:44:48.647Z,46.57
2017-09-19T23:47:16.724Z,42.70
2017-09-19T23:49:44.811Z,49.77
2017-09-19T23:52:12.891Z,39.37
2017-09-19T23:54:41.722Z,49.27
2017-09-19T23:57:09.798Z,47.57
2017-09-19T23:59:37.880Z,44.20
